createdAt,value
2023-05-05T00:04:05.592Z,6.80
2023-05-05T00:09:08.514Z,5.80
2023-05-05T00:14:11.488Z,5.90
2023-05-05T00:19:14.277Z,5.20
2023-05-05T00:24:17.096Z,6.90
2023-05-05T00:29:19.890Z,7.10
2023-05-05T00:34:22.901Z,8.20
2023-05-05T00:39:25.698Z,5.80
2023-05-05T00:44:37.968Z,5.80
2023-05-05T00:49:41.245Z,5.80
2023-05-05T00:54:44.134Z,7.20
2023-05-05T00:59:49.367Z,6.80
2023-05-05T01:04:52.818Z,8.10
2023-05-05T01:10:18.001Z,7.60
2023-05-05T01:15:31.786Z,6.70
2023-05-05T01:20:50.408Z,6.90
2023-05-05T01:26:20.091Z,7.40
2023-05-05T01:31:38.974Z,7.90
2023-05-05T01:36:46.157Z,5.30
2023-05-05T01:41:54.257Z,6.10
2023-05-05T01:47:01.350Z,5.90
2023-05-05T01:52:06.150Z,6.20
2023-05-05T01:57:11.335Z,8.00
2023-05-05T02:02:16.251Z,8.00
2023-05-05T02:07:21.547Z,6.70
2023-05-05T02:12:25.080Z,6.10
2023-05-05T02:17:31.264Z,6.80
2023-05-05T02:22:34.204Z,5.50
2023-05-05T02:27:40.974Z,5.00
2023-05-05T02:38:05.732Z,6.70
2023-05-05T02:43:11.962Z,5.90
2023-05-05T02:48:15.134Z,12.90
2023-05-05T02:53:22.347Z,4.60
2023-05-05T02:58:34.870Z,5.60
2023-05-05T03:03:50.413Z,7.60
2023-05-05T03:09:03.210Z,6.90
2023-05-05T03:14:10.094Z,5.20
2023-05-05T03:24:19.016Z,6.00
2023-05-05T03:29:21.982Z,4.90
2023-05-05T03:34:25.763Z,5.40
2023-05-05T03:39:28.535Z,6.10
2023-05-05T03:44:31.361Z,5.30
2023-05-05T03:49:34.135Z,5.50
2023-05-05T03:54:38.347Z,8.50
2023-05-05T03:59:41.406Z,6.10
2023-05-05T04:04:44.965Z,4.50
2023-05-05T04:09:47.726Z,5.10
2023-05-05T04:14:50.484Z,5.80
2023-05-05T04:19:53.255Z,4.40
2023-05-05T04:24:56.036Z,4.80
2023-05-05T04:29:58.881Z,5.60
2023-05-05T04:35:01.706Z,6.60
2023-05-05T04:40:04.914Z,6.70
2023-05-05T04:45:10.357Z,3.10
2023-05-05T04:50:13.939Z,8.40
2023-05-05T04:55:16.712Z,8.00
2023-05-05T05:00:19.526Z,12.00
2023-05-05T05:05:22.512Z,8.20
2023-05-05T05:10:25.740Z,5.60
2023-05-05T05:15:28.590Z,5.90
2023-05-05T05:20:31.762Z,5.40
2023-05-05T05:25:35.983Z,5.40
2023-05-05T05:30:38.951Z,5.20
2023-05-05T05:35:42.923Z,7.50
2023-05-05T05:40:45.711Z,6.50
2023-05-05T05:45:48.549Z,6.20
2023-05-05T05:50:51.469Z,5.60
2023-05-05T05:55:54.182Z,3.80
2023-05-05T06:00:59.162Z,6.40
2023-05-05T06:06:02.178Z,6.50
2023-05-05T06:11:05.038Z,5.70
2023-05-05T06:16:08.410Z,6.70
2023-05-05T06:21:11.450Z,5.70
2023-05-05T06:26:14.494Z,3.90
2023-05-05T06:31:17.573Z,4.80
2023-05-05T06:36:20.514Z,5.00
2023-05-05T06:41:23.269Z,4.40
2023-05-05T06:46:28.336Z,3.70
2023-05-05T06:51:31.846Z,4.60
2023-05-05T06:56:34.812Z,5.00
2023-05-05T07:01:37.517Z,4.10
2023-05-05T07:06:40.404Z,5.30
2023-05-05T07:11:52.006Z,4.10
2023-05-05T07:16:54.829Z,4.30
2023-05-05T07:22:03.588Z,4.80
2023-05-05T07:32:24.306Z,6.50
2023-05-05T07:37:36.504Z,7.80
2023-05-05T07:42:39.340Z,4.50
2023-05-05T07:47:42.281Z,7.60
2023-05-05T07:52:51.824Z,3.60
2023-05-05T07:57:59.098Z,5.60
2023-05-05T08:03:01.972Z,5.20
2023-05-05T08:08:07.564Z,5.80
2023-05-05T08:18:14.938Z,5.20
2023-05-05T08:23:17.739Z,7.10
2023-05-05T08:28:20.531Z,3.60
2023-05-05T08:33:23.273Z,6.00
2023-05-05T08:38:27.960Z,3.50
2023-05-05T08:43:31.034Z,6.40
2023-05-05T08:48:35.745Z,4.50
2023-05-05T08:53:51.755Z,5.80
2023-05-05T08:58:56.455Z,4.60
2023-05-05T09:04:04.894Z,4.80
2023-05-05T09:09:08.544Z,4.60
2023-05-05T09:19:31.736Z,4.80
2023-05-05T09:24:34.610Z,3.80
2023-05-05T09:29:37.935Z,3.90
2023-05-05T09:34:41.283Z,3.80
2023-05-05T09:39:54.767Z,4.80
2023-05-05T09:44:59.782Z,4.90
2023-05-05T09:50:11.447Z,5.10
2023-05-05T09:55:19.023Z,5.20
2023-05-05T10:00:41.804Z,4.60
2023-05-05T10:05:55.481Z,4.60
2023-05-05T10:11:08.072Z,5.60
2023-05-05T10:16:14.748Z,3.50
2023-05-05T10:21:25.674Z,4.40
2023-05-05T10:26:34.892Z,5.70
2023-05-05T10:31:47.205Z,3.70
2023-05-05T10:36:51.753Z,5.00
2023-05-05T10:41:55.882Z,4.50
2023-05-05T10:47:00.496Z,4.10
2023-05-05T10:52:06.987Z,5.10
2023-05-05T10:57:12.129Z,4.90
2023-05-05T11:02:29.605Z,4.70
2023-05-05T11:07:50.124Z,2.70
2023-05-05T11:12:58.333Z,3.90
2023-05-05T11:18:05.775Z,5.20
2023-05-05T11:23:29.977Z,5.30
2023-05-05T11:28:32.883Z,3.80
2023-05-05T11:33:37.763Z,3.20
2023-05-05T11:38:55.969Z,2.80
2023-05-05T11:44:11.905Z,5.00
2023-05-05T11:49:29.066Z,9.50
2023-05-05T11:54:32.945Z,5.50
2023-05-05T11:59:49.650Z,3.10
2023-05-05T12:04:52.994Z,2.80
2023-05-05T12:09:56.169Z,7.00
2023-05-05T12:14:59.076Z,2.50
2023-05-05T12:20:01.933Z,4.50
2023-05-05T12:25:07.013Z,4.10
2023-05-05T12:30:12.657Z,3.70
2023-05-05T12:35:16.185Z,2.50
2023-05-05T12:40:48.551Z,3.90
2023-05-05T12:46:12.224Z,5.90
2023-05-05T12:51:16.892Z,3.30
2023-05-05T12:56:38.170Z,3.70
2023-05-05T13:01:58.014Z,3.40
2023-05-05T13:07:14.910Z,3.90
2023-05-05T13:12:18.629Z,2.50
2023-05-05T13:17:21.408Z,3.70
2023-05-05T13:22:24.213Z,5.40
2023-05-05T13:27:27.319Z,4.00
2023-05-05T13:32:30.174Z,3.50
2023-05-05T13:37:33.010Z,3.40
2023-05-05T13:42:35.769Z,3.10
2023-05-05T13:47:39.087Z,3.50
2023-05-05T13:52:42.058Z,4.90
2023-05-05T13:57:44.956Z,2.60
2023-05-05T14:02:48.296Z,3.60
2023-05-05T14:07:51.363Z,2.50
2023-05-05T14:12:54.218Z,2.00
2023-05-05T14:17:57.199Z,3.60
2023-05-05T14:23:00.534Z,3.40
2023-05-05T14:28:04.172Z,2.50
2023-05-05T14:33:08.271Z,3.90
2023-05-05T14:38:11.283Z,2.40
2023-05-05T14:43:16.323Z,3.60
2023-05-05T14:48:22.256Z,3.40
2023-05-05T14:53:25.279Z,2.10
2023-05-05T14:58:28.130Z,2.50
2023-05-05T15:03:31.733Z,3.90
2023-05-05T15:08:34.952Z,5.10
2023-05-05T15:13:41.694Z,2.50
2023-05-05T15:18:44.450Z,3.10
2023-05-05T15:23:47.195Z,3.20
2023-05-05T15:28:50.467Z,4.30
2023-05-05T15:33:53.376Z,4.20
2023-05-05T15:38:56.817Z,5.20
2023-05-05T15:44:00.793Z,2.40
2023-05-05T15:49:03.720Z,2.50
2023-05-05T15:54:07.845Z,2.70
2023-05-05T15:59:10.613Z,3.00
2023-05-05T16:04:13.834Z,3.30
2023-05-05T16:09:17.709Z,3.60
2023-05-05T16:14:20.812Z,4.50
2023-05-05T16:19:30.883Z,2.30
2023-05-05T16:24:33.738Z,5.60
2023-05-05T16:29:36.798Z,4.20
2023-05-05T16:34:39.733Z,2.60
2023-05-05T16:39:42.608Z,2.10
2023-05-05T16:44:45.389Z,3.70
2023-05-05T16:49:48.223Z,2.80
2023-05-05T16:54:56.110Z,3.00
2023-05-05T16:59:59.404Z,2.30
2023-05-05T17:05:02.736Z,4.20
2023-05-05T17:10:06.902Z,2.80
2023-05-05T17:15:10.261Z,4.00
2023-05-05T17:20:13.399Z,4.40
2023-05-05T17:25:19.187Z,1.90
2023-05-05T17:30:22.189Z,3.80
2023-05-05T17:35:25.046Z,6.40
2023-05-05T17:40:28.958Z,4.80
2023-05-05T17:45:32.211Z,4.00
2023-05-05T17:50:35.023Z,3.90
2023-05-05T17:55:37.981Z,3.80
2023-05-05T18:00:40.873Z,4.90
2023-05-05T18:05:43.747Z,3.00
2023-05-05T18:10:46.709Z,6.30
2023-05-05T18:15:49.487Z,3.40
2023-05-05T18:20:52.335Z,4.30
2023-05-05T18:25:55.153Z,4.30
2023-05-05T18:30:57.923Z,5.20
2023-05-05T18:36:03.802Z,4.00
2023-05-05T18:41:06.745Z,2.90
2023-05-05T18:46:09.497Z,4.00
2023-05-05T18:51:12.297Z,6.30
2023-05-05T18:56:15.047Z,6.40
2023-05-05T19:01:18.019Z,5.20
2023-05-05T19:06:20.945Z,5.70
2023-05-05T19:11:24.087Z,7.90
2023-05-05T19:16:27.880Z,5.50
2023-05-05T19:21:32.035Z,4.20
2023-05-05T19:26:34.817Z,4.60
2023-05-05T19:31:37.551Z,5.90
2023-05-05T19:36:40.334Z,5.70
2023-05-05T19:41:43.099Z,6.50
2023-05-05T19:46:48.011Z,5.30
2023-05-05T19:51:52.167Z,5.70
2023-05-05T19:56:57.176Z,5.10
2023-05-05T20:02:01.907Z,6.70
2023-05-05T20:07:04.707Z,4.70
2023-05-05T20:12:07.753Z,3.80
2023-05-05T20:17:12.060Z,7.20
2023-05-05T20:22:14.809Z,5.70
2023-05-05T20:27:17.597Z,6.60
2023-05-05T20:32:22.242Z,5.00
2023-05-05T20:37:27.174Z,5.00
2023-05-05T20:42:31.253Z,5.80
2023-05-05T20:47:35.754Z,5.90
2023-05-05T20:52:38.718Z,5.60
2023-05-05T20:57:41.495Z,5.40
2023-05-05T21:02:44.488Z,6.80
2023-05-05T21:07:47.537Z,5.50
2023-05-05T21:12:50.473Z,7.60
2023-05-05T21:17:55.190Z,6.20
2023-05-05T21:22:57.997Z,7.30
2023-05-05T21:28:00.767Z,6.10
2023-05-05T21:33:03.765Z,6.50
2023-05-05T21:38:06.720Z,4.50
2023-05-05T21:43:09.532Z,8.20
2023-05-05T21:48:12.339Z,6.10
2023-05-05T21:53:15.332Z,9.70
2023-05-05T21:58:18.073Z,6.10
2023-05-05T22:03:21.360Z,7.40
2023-05-05T22:08:24.503Z,7.90
2023-05-05T22:13:27.312Z,8.80
2023-05-05T22:18:30.128Z,6.70
2023-05-05T22:23:32.933Z,9.40
2023-05-05T22:28:36.222Z,8.70
2023-05-05T22:33:39.036Z,8.60
2023-05-05T22:38:42.369Z,7.30
2023-05-05T22:43:45.283Z,7.60
2023-05-05T22:48:49.134Z,7.90
2023-05-05T22:53:51.975Z,8.20
2023-05-05T22:58:54.802Z,10.00
2023-05-05T23:03:57.600Z,11.40
2023-05-05T23:09:02.743Z,14.80
2023-05-05T23:14:05.535Z,11.30
2023-05-05T23:19:08.312Z,12.50
2023-05-05T23:24:11.138Z,10.00
2023-05-05T23:29:13.931Z,7.60
2023-05-05T23:34:16.876Z,7.50
2023-05-05T23:39:19.698Z,5.60
2023-05-05T23:44:22.466Z,7.30
2023-05-05T23:49:26.469Z,8.60
2023-05-05T23:54:29.495Z,10.40
2023-05-05T23:59:32.291Z,8.30
